sensor_id;sensor_type;location;lat;lon;timestamp;temperature;humidity
19437;DHT22;9854;50.968;4.168;2023-10-19T00:00:33;17.30;99.90
19437;DHT22;9854;50.968;4.168;2023-10-19T00:03:00;17.30;99.90
19437;DHT22;9854;50.968;4.168;2023-10-19T00:05:29;17.20;99.90
19437;DHT22;9854;50.968;4.168;2023-10-19T00:07:56;17.20;99.90
19437;DHT22;9854;50.968;4.168;2023-10-19T00:10:23;17.30;99.90
19437;DHT22;9854;50.968;4.168;2023-10-19T00:12:51;17.30;99.90
19437;DHT22;9854;50.968;4.168;2023-10-19T00:15:26;17.20;99.90
19437;DHT22;9854;50.968;4.168;2023-10-19T00:17:56;17.20;99.90
19437;DHT22;9854;50.968;4.168;2023-10-19T00:20:21;17.40;99.90
19437;DHT22;9854;50.968;4.168;2023-10-19T00:23:23;17.40;99.90
19437;DHT22;9854;50.968;4.168;2023-10-19T00:25:59;17.30;99.90
19437;DHT22;9854;50.968;4.168;2023-10-19T00:28:26;17.20;99.90
19437;DHT22;9854;50.968;4.168;2023-10-19T00:30:53;17.20;99.90
19437;DHT22;9854;50.968;4.168;2023-10-19T00:33:19;17.30;99.90
19437;DHT22;9854;50.968;4.168;2023-10-19T00:35:54;17.40;99.90
19437;DHT22;9854;50.968;4.168;2023-10-19T00:38:24;17.50;99.90
19437;DHT22;9854;50.968;4.168;2023-10-19T00:40:56;17.40;99.90
19437;DHT22;9854;50.968;4.168;2023-10-19T00:43:45;17.20;99.90
19437;DHT22;9854;50.968;4.168;2023-10-19T00:46:12;17.20;99.90
19437;DHT22;9854;50.968;4.168;2023-10-19T00:48:53;17.20;99.90
19437;DHT22;9854;50.968;4.168;2023-10-19T00:51:21;17.30;99.90
19437;DHT22;9854;50.968;4.168;2023-10-19T00:56:36;17.20;99.90
19437;DHT22;9854;50.968;4.168;2023-10-19T00:59:02;17.10;99.90
19437;DHT22;9854;50.968;4.168;2023-10-19T01:01:41;17.30;99.90
19437;DHT22;9854;50.968;4.168;2023-10-19T01:04:11;17.40;99.90
19437;DHT22;9854;50.968;4.168;2023-10-19T01:06:41;17.30;99.90
19437;DHT22;9854;50.968;4.168;2023-10-19T01:09:23;17.10;99.90
19437;DHT22;9854;50.968;4.168;2023-10-19T01:11:52;17.00;99.90
19437;DHT22;9854;50.968;4.168;2023-10-19T01:14:19;17.10;99.90
19437;DHT22;9854;50.968;4.168;2023-10-19T01:16:47;17.20;99.90
19437;DHT22;9854;50.968;4.168;2023-10-19T01:19:15;17.20;99.90
19437;DHT22;9854;50.968;4.168;2023-10-19T01:21:44;17.20;99.90
19437;DHT22;9854;50.968;4.168;2023-10-19T01:24:20;17.30;99.90
19437;DHT22;9854;50.968;4.168;2023-10-19T01:27:06;17.30;99.90
19437;DHT22;9854;50.968;4.168;2023-10-19T01:29:35;17.30;99.90
19437;DHT22;9854;50.968;4.168;2023-10-19T01:32:03;17.40;99.90
19437;DHT22;9854;50.968;4.168;2023-10-19T01:34:34;17.40;99.90
19437;DHT22;9854;50.968;4.168;2023-10-19T01:37:00;17.30;99.90
19437;DHT22;9854;50.968;4.168;2023-10-19T01:39:32;17.20;99.90
19437;DHT22;9854;50.968;4.168;2023-10-19T01:42:01;17.10;99.90
19437;DHT22;9854;50.968;4.168;2023-10-19T01:44:28;17.10;99.90
19437;DHT22;9854;50.968;4.168;2023-10-19T01:46:54;17.10;99.90
19437;DHT22;9854;50.968;4.168;2023-10-19T01:49:21;16.90;99.90
19437;DHT22;9854;50.968;4.168;2023-10-19T01:51:53;17.00;99.90
19437;DHT22;9854;50.968;4.168;2023-10-19T01:54:23;17.00;99.90
19437;DHT22;9854;50.968;4.168;2023-10-19T01:56:54;16.90;99.90
19437;DHT22;9854;50.968;4.168;2023-10-19T01:59:23;16.90;99.90
19437;DHT22;9854;50.968;4.168;2023-10-19T02:01:55;16.90;99.90
19437;DHT22;9854;50.968;4.168;2023-10-19T02:04:21;16.90;99.90
19437;DHT22;9854;50.968;4.168;2023-10-19T02:06:47;16.90;99.90
19437;DHT22;9854;50.968;4.168;2023-10-19T02:09:14;16.80;99.90
19437;DHT22;9854;50.968;4.168;2023-10-19T02:11:40;16.90;99.90
19437;DHT22;9854;50.968;4.168;2023-10-19T02:14:11;16.90;99.90
19437;DHT22;9854;50.968;4.168;2023-10-19T02:16:44;16.80;99.90
19437;DHT22;9854;50.968;4.168;2023-10-19T02:19:13;16.90;99.90
19437;DHT22;9854;50.968;4.168;2023-10-19T02:21:38;17.00;99.90
19437;DHT22;9854;50.968;4.168;2023-10-19T02:24:09;16.90;99.90
19437;DHT22;9854;50.968;4.168;2023-10-19T02:26:35;17.00;99.90
19437;DHT22;9854;50.968;4.168;2023-10-19T02:29:04;16.90;99.90
19437;DHT22;9854;50.968;4.168;2023-10-19T02:31:38;16.80;99.90
19437;DHT22;9854;50.968;4.168;2023-10-19T02:34:09;16.90;99.90
19437;DHT22;9854;50.968;4.168;2023-10-19T02:36:37;16.80;99.90
19437;DHT22;9854;50.968;4.168;2023-10-19T02:39:10;16.80;99.90
19437;DHT22;9854;50.968;4.168;2023-10-19T02:41:43;16.90;99.90
19437;DHT22;9854;50.968;4.168;2023-10-19T02:44:14;16.80;99.90
19437;DHT22;9854;50.968;4.168;2023-10-19T02:46:47;16.60;99.90
19437;DHT22;9854;50.968;4.168;2023-10-19T02:49:14;16.70;99.90
19437;DHT22;9854;50.968;4.168;2023-10-19T02:51:44;16.60;99.90
19437;DHT22;9854;50.968;4.168;2023-10-19T02:54:12;16.70;99.90
19437;DHT22;9854;50.968;4.168;2023-10-19T02:56:54;16.70;99.90
19437;DHT22;9854;50.968;4.168;2023-10-19T02:59:23;16.70;99.90
19437;DHT22;9854;50.968;4.168;2023-10-19T03:01:50;16.70;99.90
19437;DHT22;9854;50.968;4.168;2023-10-19T03:04:17;16.70;99.90
19437;DHT22;9854;50.968;4.168;2023-10-19T03:06:43;16.80;99.90
19437;DHT22;9854;50.968;4.168;2023-10-19T03:09:09;16.70;99.90
19437;DHT22;9854;50.968;4.168;2023-10-19T03:11:47;16.60;99.90
19437;DHT22;9854;50.968;4.168;2023-10-19T03:14:17;16.80;99.90
19437;DHT22;9854;50.968;4.168;2023-10-19T03:16:43;16.80;99.90
19437;DHT22;9854;50.968;4.168;2023-10-19T03:19:09;16.80;99.90
19437;DHT22;9854;50.968;4.168;2023-10-19T03:21:35;16.80;99.90
19437;DHT22;9854;50.968;4.168;2023-10-19T03:24:11;16.70;99.90
19437;DHT22;9854;50.968;4.168;2023-10-19T03:27:08;16.70;99.90
19437;DHT22;9854;50.968;4.168;2023-10-19T03:29:47;16.70;99.90
19437;DHT22;9854;50.968;4.168;2023-10-19T03:32:15;16.60;99.90
19437;DHT22;9854;50.968;4.168;2023-10-19T03:34:47;16.80;99.90
19437;DHT22;9854;50.968;4.168;2023-10-19T03:37:14;16.90;99.90
19437;DHT22;9854;50.968;4.168;2023-10-19T03:39:41;16.80;99.90
19437;DHT22;9854;50.968;4.168;2023-10-19T03:42:07;16.90;99.90
19437;DHT22;9854;50.968;4.168;2023-10-19T03:44:33;16.90;99.90
19437;DHT22;9854;50.968;4.168;2023-10-19T03:47:25;16.90;99.90
19437;DHT22;9854;50.968;4.168;2023-10-19T03:50:04;16.90;99.90
19437;DHT22;9854;50.968;4.168;2023-10-19T03:52:35;17.00;99.90
19437;DHT22;9854;50.968;4.168;2023-10-19T03:55:03;16.90;99.90
19437;DHT22;9854;50.968;4.168;2023-10-19T03:57:36;17.00;99.90
19437;DHT22;9854;50.968;4.168;2023-10-19T04:00:07;16.80;99.90
19437;DHT22;9854;50.968;4.168;2023-10-19T04:02:36;16.90;99.90
19437;DHT22;9854;50.968;4.168;2023-10-19T04:05:04;17.00;99.90
19437;DHT22;9854;50.968;4.168;2023-10-19T04:07:30;17.00;99.90
19437;DHT22;9854;50.968;4.168;2023-10-19T04:09:58;17.10;99.90
19437;DHT22;9854;50.968;4.168;2023-10-19T04:12:25;17.20;99.90
19437;DHT22;9854;50.968;4.168;2023-10-19T04:14:50;17.30;99.90
19437;DHT22;9854;50.968;4.168;2023-10-19T04:17:16;17.10;99.90
19437;DHT22;9854;50.968;4.168;2023-10-19T04:19:47;17.20;99.90
19437;DHT22;9854;50.968;4.168;2023-10-19T04:22:14;17.20;99.90
19437;DHT22;9854;50.968;4.168;2023-10-19T04:24:48;17.20;99.90
19437;DHT22;9854;50.968;4.168;2023-10-19T04:27:14;17.30;99.90
19437;DHT22;9854;50.968;4.168;2023-10-19T04:29:40;17.40;99.90
19437;DHT22;9854;50.968;4.168;2023-10-19T04:32:11;17.40;99.90
19437;DHT22;9854;50.968;4.168;2023-10-19T04:34:40;17.20;99.90
19437;DHT22;9854;50.968;4.168;2023-10-19T04:37:06;17.20;99.90
19437;DHT22;9854;50.968;4.168;2023-10-19T04:39:32;17.20;99.90
19437;DHT22;9854;50.968;4.168;2023-10-19T04:42:00;17.20;99.90
19437;DHT22;9854;50.968;4.168;2023-10-19T04:44:25;17.30;99.90
19437;DHT22;9854;50.968;4.168;2023-10-19T04:46:51;17.10;99.90
19437;DHT22;9854;50.968;4.168;2023-10-19T04:49:16;17.00;99.90
19437;DHT22;9854;50.968;4.168;2023-10-19T04:51:42;16.90;99.90
19437;DHT22;9854;50.968;4.168;2023-10-19T04:54:09;17.00;99.90
19437;DHT22;9854;50.968;4.168;2023-10-19T04:56:35;16.90;99.90
19437;DHT22;9854;50.968;4.168;2023-10-19T04:59:04;16.90;99.90
19437;DHT22;9854;50.968;4.168;2023-10-19T05:01:30;16.90;99.90
19437;DHT22;9854;50.968;4.168;2023-10-19T05:03:59;16.90;99.90
19437;DHT22;9854;50.968;4.168;2023-10-19T05:06:25;17.00;99.90
19437;DHT22;9854;50.968;4.168;2023-10-19T05:08:50;17.10;99.90
19437;DHT22;9854;50.968;4.168;2023-10-19T05:11:17;17.20;99.90
19437;DHT22;9854;50.968;4.168;2023-10-19T05:13:43;17.20;99.90
19437;DHT22;9854;50.968;4.168;2023-10-19T05:16:09;17.00;99.90
19437;DHT22;9854;50.968;4.168;2023-10-19T05:18:34;17.10;99.90
19437;DHT22;9854;50.968;4.168;2023-10-19T05:21:00;17.00;99.90
19437;DHT22;9854;50.968;4.168;2023-10-19T05:23:27;17.00;99.90
19437;DHT22;9854;50.968;4.168;2023-10-19T05:25:59;17.00;99.90
19437;DHT22;9854;50.968;4.168;2023-10-19T05:28:26;17.20;99.90
19437;DHT22;9854;50.968;4.168;2023-10-19T05:30:51;17.20;99.90
19437;DHT22;9854;50.968;4.168;2023-10-19T05:33:17;17.20;99.90
19437;DHT22;9854;50.968;4.168;2023-10-19T05:35:50;17.30;99.90
19437;DHT22;9854;50.968;4.168;2023-10-19T05:38:17;17.00;99.90
19437;DHT22;9854;50.968;4.168;2023-10-19T05:40:44;17.00;99.90
19437;DHT22;9854;50.968;4.168;2023-10-19T05:43:10;17.10;99.90
19437;DHT22;9854;50.968;4.168;2023-10-19T05:45:37;17.20;99.90
19437;DHT22;9854;50.968;4.168;2023-10-19T05:48:03;17.20;99.90
19437;DHT22;9854;50.968;4.168;2023-10-19T05:50:35;17.00;99.90
19437;DHT22;9854;50.968;4.168;2023-10-19T05:53:01;17.10;99.90
19437;DHT22;9854;50.968;4.168;2023-10-19T05:55:28;17.20;99.90
19437;DHT22;9854;50.968;4.168;2023-10-19T05:57:54;17.20;99.90
19437;DHT22;9854;50.968;4.168;2023-10-19T06:00:21;17.20;99.90
19437;DHT22;9854;50.968;4.168;2023-10-19T06:02:48;17.20;99.90
19437;DHT22;9854;50.968;4.168;2023-10-19T06:05:17;17.40;99.90
19437;DHT22;9854;50.968;4.168;2023-10-19T06:07:48;17.40;99.90
19437;DHT22;9854;50.968;4.168;2023-10-19T06:10:16;17.50;99.90
19437;DHT22;9854;50.968;4.168;2023-10-19T06:12:46;17.40;99.90
19437;DHT22;9854;50.968;4.168;2023-10-19T06:15:13;17.30;99.90
19437;DHT22;9854;50.968;4.168;2023-10-19T06:17:40;17.30;99.90
19437;DHT22;9854;50.968;4.168;2023-10-19T06:20:10;17.30;99.90
19437;DHT22;9854;50.968;4.168;2023-10-19T06:22:53;17.20;99.90
19437;DHT22;9854;50.968;4.168;2023-10-19T06:25:22;17.30;99.90
19437;DHT22;9854;50.968;4.168;2023-10-19T06:27:49;17.30;99.90
19437;DHT22;9854;50.968;4.168;2023-10-19T06:30:16;17.20;99.90
19437;DHT22;9854;50.968;4.168;2023-10-19T06:32:50;17.10;99.90
19437;DHT22;9854;50.968;4.168;2023-10-19T06:35:17;17.20;99.90
19437;DHT22;9854;50.968;4.168;2023-10-19T06:37:44;17.20;99.90
19437;DHT22;9854;50.968;4.168;2023-10-19T06:40:10;17.10;99.90
19437;DHT22;9854;50.968;4.168;2023-10-19T06:42:38;16.90;99.90
19437;DHT22;9854;50.968;4.168;2023-10-19T06:45:04;17.00;99.90
19437;DHT22;9854;50.968;4.168;2023-10-19T06:47:29;16.90;99.90
19437;DHT22;9854;50.968;4.168;2023-10-19T06:49:56;16.90;99.90
19437;DHT22;9854;50.968;4.168;2023-10-19T06:52:22;16.80;99.90
19437;DHT22;9854;50.968;4.168;2023-10-19T06:54:47;16.80;99.90
19437;DHT22;9854;50.968;4.168;2023-10-19T06:57:13;16.90;99.90
19437;DHT22;9854;50.968;4.168;2023-10-19T06:59:39;17.00;99.90
19437;DHT22;9854;50.968;4.168;2023-10-19T07:02:04;17.00;99.90
19437;DHT22;9854;50.968;4.168;2023-10-19T07:04:33;17.00;99.90
19437;DHT22;9854;50.968;4.168;2023-10-19T07:06:58;17.00;99.90
19437;DHT22;9854;50.968;4.168;2023-10-19T07:09:26;17.10;99.90
19437;DHT22;9854;50.968;4.168;2023-10-19T07:11:52;17.20;99.90
19437;DHT22;9854;50.968;4.168;2023-10-19T07:14:20;17.20;99.90
19437;DHT22;9854;50.968;4.168;2023-10-19T07:16:51;17.00;99.90
19437;DHT22;9854;50.968;4.168;2023-10-19T07:19:17;17.00;99.90
19437;DHT22;9854;50.968;4.168;2023-10-19T07:21:43;16.90;99.90
19437;DHT22;9854;50.968;4.168;2023-10-19T07:24:14;17.00;99.90
19437;DHT22;9854;50.968;4.168;2023-10-19T07:26:39;17.00;99.90
19437;DHT22;9854;50.968;4.168;2023-10-19T07:29:31;17.00;99.90
19437;DHT22;9854;50.968;4.168;2023-10-19T07:31:57;17.00;99.90
19437;DHT22;9854;50.968;4.168;2023-10-19T07:34:24;16.90;99.90
19437;DHT22;9854;50.968;4.168;2023-10-19T07:36:54;16.90;99.90
19437;DHT22;9854;50.968;4.168;2023-10-19T07:39:20;16.90;99.90
19437;DHT22;9854;50.968;4.168;2023-10-19T07:41:45;16.90;99.90
19437;DHT22;9854;50.968;4.168;2023-10-19T07:44:12;16.90;99.90
19437;DHT22;9854;50.968;4.168;2023-10-19T07:46:38;17.00;99.90
19437;DHT22;9854;50.968;4.168;2023-10-19T07:49:03;17.20;99.90
19437;DHT22;9854;50.968;4.168;2023-10-19T07:51:29;17.30;99.90
19437;DHT22;9854;50.968;4.168;2023-10-19T07:53:55;17.30;99.90
19437;DHT22;9854;50.968;4.168;2023-10-19T07:56:22;17.50;99.90
19437;DHT22;9854;50.968;4.168;2023-10-19T07:58:49;17.50;99.90
19437;DHT22;9854;50.968;4.168;2023-10-19T08:01:14;17.60;99.90
19437;DHT22;9854;50.968;4.168;2023-10-19T08:03:40;17.70;99.90
19437;DHT22;9854;50.968;4.168;2023-10-19T08:06:06;17.70;99.90
19437;DHT22;9854;50.968;4.168;2023-10-19T08:08:32;17.80;99.90
19437;DHT22;9854;50.968;4.168;2023-10-19T08:11:01;17.80;99.90
19437;DHT22;9854;50.968;4.168;2023-10-19T08:13:27;17.80;99.90
19437;DHT22;9854;50.968;4.168;2023-10-19T08:15:53;17.80;99.90
19437;DHT22;9854;50.968;4.168;2023-10-19T08:18:18;17.90;99.90
19437;DHT22;9854;50.968;4.168;2023-10-19T08:20:44;17.80;99.90
19437;DHT22;9854;50.968;4.168;2023-10-19T08:23:14;17.80;99.90
19437;DHT22;9854;50.968;4.168;2023-10-19T08:25:42;17.80;99.90
19437;DHT22;9854;50.968;4.168;2023-10-19T08:28:09;17.80;99.90
19437;DHT22;9854;50.968;4.168;2023-10-19T08:30:36;17.80;99.90
19437;DHT22;9854;50.968;4.168;2023-10-19T08:33:03;17.80;99.90
19437;DHT22;9854;50.968;4.168;2023-10-19T08:35:29;17.80;99.90
19437;DHT22;9854;50.968;4.168;2023-10-19T08:37:56;17.90;99.90
19437;DHT22;9854;50.968;4.168;2023-10-19T08:40:26;17.90;99.90
19437;DHT22;9854;50.968;4.168;2023-10-19T08:42:54;18.00;99.90
19437;DHT22;9854;50.968;4.168;2023-10-19T08:45:20;18.10;99.90
19437;DHT22;9854;50.968;4.168;2023-10-19T08:47:57;18.10;99.90
19437;DHT22;9854;50.968;4.168;2023-10-19T08:50:25;18.20;99.90
19437;DHT22;9854;50.968;4.168;2023-10-19T08:52:57;18.30;99.90
19437;DHT22;9854;50.968;4.168;2023-10-19T08:55:24;18.40;99.90
19437;DHT22;9854;50.968;4.168;2023-10-19T08:57:50;18.50;99.90
19437;DHT22;9854;50.968;4.168;2023-10-19T09:00:17;18.50;99.90
19437;DHT22;9854;50.968;4.168;2023-10-19T09:02:44;18.50;99.90
19437;DHT22;9854;50.968;4.168;2023-10-19T09:05:10;18.50;99.90
19437;DHT22;9854;50.968;4.168;2023-10-19T09:07:46;18.60;99.90
19437;DHT22;9854;50.968;4.168;2023-10-19T09:10:16;18.50;99.90
19437;DHT22;9854;50.968;4.168;2023-10-19T09:12:42;18.50;99.90
19437;DHT22;9854;50.968;4.168;2023-10-19T09:15:22;18.40;99.90
19437;DHT22;9854;50.968;4.168;2023-10-19T09:17:48;18.50;99.90
19437;DHT22;9854;50.968;4.168;2023-10-19T09:20:14;18.40;99.90
19437;DHT22;9854;50.968;4.168;2023-10-19T09:22:44;18.70;99.90
19437;DHT22;9854;50.968;4.168;2023-10-19T09:25:10;18.90;99.90
19437;DHT22;9854;50.968;4.168;2023-10-19T09:27:35;18.80;99.90
19437;DHT22;9854;50.968;4.168;2023-10-19T09:30:02;18.90;99.90
19437;DHT22;9854;50.968;4.168;2023-10-19T09:32:33;19.00;99.90
19437;DHT22;9854;50.968;4.168;2023-10-19T09:34:59;19.00;99.90
19437;DHT22;9854;50.968;4.168;2023-10-19T09:37:25;19.00;99.90
19437;DHT22;9854;50.968;4.168;2023-10-19T09:39:51;19.00;99.90
19437;DHT22;9854;50.968;4.168;2023-10-19T09:42:18;19.20;99.90
19437;DHT22;9854;50.968;4.168;2023-10-19T09:44:45;19.20;99.90
19437;DHT22;9854;50.968;4.168;2023-10-19T09:47:20;19.10;99.90
19437;DHT22;9854;50.968;4.168;2023-10-19T09:49:49;19.10;99.90
19437;DHT22;9854;50.968;4.168;2023-10-19T09:52:16;19.10;99.90
19437;DHT22;9854;50.968;4.168;2023-10-19T09:57:50;19.10;99.90
19437;DHT22;9854;50.968;4.168;2023-10-19T10:00:18;19.30;99.90
19437;DHT22;9854;50.968;4.168;2023-10-19T10:02:49;19.30;99.90
19437;DHT22;9854;50.968;4.168;2023-10-19T10:10:47;19.60;99.90
19437;DHT22;9854;50.968;4.168;2023-10-19T10:15:57;19.80;99.90
19437;DHT22;9854;50.968;4.168;2023-10-19T10:18:29;19.80;99.90
19437;DHT22;9854;50.968;4.168;2023-10-19T10:21:06;19.80;99.90
19437;DHT22;9854;50.968;4.168;2023-10-19T10:23:48;20.00;99.90
19437;DHT22;9854;50.968;4.168;2023-10-19T10:26:16;20.10;99.90
19437;DHT22;9854;50.968;4.168;2023-10-19T10:28:47;20.10;99.90
19437;DHT22;9854;50.968;4.168;2023-10-19T10:31:18;20.00;99.90
19437;DHT22;9854;50.968;4.168;2023-10-19T10:34:01;20.10;99.90
19437;DHT22;9854;50.968;4.168;2023-10-19T10:36:57;20.20;99.90
19437;DHT22;9854;50.968;4.168;2023-10-19T10:39:25;20.30;99.90
19437;DHT22;9854;50.968;4.168;2023-10-19T10:41:58;20.30;99.90
19437;DHT22;9854;50.968;4.168;2023-10-19T10:44:37;20.40;99.90
19437;DHT22;9854;50.968;4.168;2023-10-19T10:47:12;20.40;99.90
19437;DHT22;9854;50.968;4.168;2023-10-19T10:49:59;20.40;99.90
19437;DHT22;9854;50.968;4.168;2023-10-19T10:52:35;20.30;99.90
19437;DHT22;9854;50.968;4.168;2023-10-19T10:55:10;20.00;99.90
19437;DHT22;9854;50.968;4.168;2023-10-19T10:57:43;20.00;99.90
19437;DHT22;9854;50.968;4.168;2023-10-19T11:00:11;20.00;99.90
19437;DHT22;9854;50.968;4.168;2023-10-19T11:03:02;20.00;99.90
19437;DHT22;9854;50.968;4.168;2023-10-19T11:05:33;20.00;99.90
19437;DHT22;9854;50.968;4.168;2023-10-19T11:08:05;20.20;99.90
19437;DHT22;9854;50.968;4.168;2023-10-19T11:10:31;20.20;99.90
19437;DHT22;9854;50.968;4.168;2023-10-19T11:13:08;20.40;99.90
19437;DHT22;9854;50.968;4.168;2023-10-19T11:15:35;20.30;99.90
19437;DHT22;9854;50.968;4.168;2023-10-19T11:18:02;20.10;99.90
19437;DHT22;9854;50.968;4.168;2023-10-19T11:20:28;20.00;99.90
19437;DHT22;9854;50.968;4.168;2023-10-19T11:22:55;20.00;99.90
19437;DHT22;9854;50.968;4.168;2023-10-19T11:25:26;20.00;99.90
19437;DHT22;9854;50.968;4.168;2023-10-19T11:27:59;20.10;99.90
19437;DHT22;9854;50.968;4.168;2023-10-19T11:30:30;20.10;99.90
19437;DHT22;9854;50.968;4.168;2023-10-19T11:32:59;20.10;99.90
19437;DHT22;9854;50.968;4.168;2023-10-19T11:35:29;20.20;99.90
19437;DHT22;9854;50.968;4.168;2023-10-19T11:37:57;20.40;99.90
19437;DHT22;9854;50.968;4.168;2023-10-19T11:40:24;20.30;99.90
19437;DHT22;9854;50.968;4.168;2023-10-19T11:42:51;20.30;99.90
19437;DHT22;9854;50.968;4.168;2023-10-19T11:45:18;20.50;99.90
19437;DHT22;9854;50.968;4.168;2023-10-19T11:47:44;20.30;99.90
19437;DHT22;9854;50.968;4.168;2023-10-19T11:50:11;20.30;99.90
19437;DHT22;9854;50.968;4.168;2023-10-19T11:52:44;20.20;99.90
19437;DHT22;9854;50.968;4.168;2023-10-19T11:55:14;20.40;99.90
19437;DHT22;9854;50.968;4.168;2023-10-19T11:57:41;20.50;99.90
19437;DHT22;9854;50.968;4.168;2023-10-19T12:00:10;20.50;99.90
19437;DHT22;9854;50.968;4.168;2023-10-19T12:02:39;20.60;99.90
19437;DHT22;9854;50.968;4.168;2023-10-19T12:05:07;20.50;99.90
19437;DHT22;9854;50.968;4.168;2023-10-19T12:07:39;20.50;99.90
19437;DHT22;9854;50.968;4.168;2023-10-19T12:10:10;20.40;99.90
19437;DHT22;9854;50.968;4.168;2023-10-19T12:12:36;20.30;99.90
19437;DHT22;9854;50.968;4.168;2023-10-19T12:15:06;20.30;99.90
19437;DHT22;9854;50.968;4.168;2023-10-19T12:17:32;20.20;99.90
19437;DHT22;9854;50.968;4.168;2023-10-19T12:19:58;20.10;99.90
19437;DHT22;9854;50.968;4.168;2023-10-19T12:22:24;20.00;99.90
19437;DHT22;9854;50.968;4.168;2023-10-19T12:24:54;20.00;99.90
19437;DHT22;9854;50.968;4.168;2023-10-19T12:27:20;19.80;99.90
19437;DHT22;9854;50.968;4.168;2023-10-19T12:29:46;19.70;99.90
19437;DHT22;9854;50.968;4.168;2023-10-19T12:32:12;19.70;99.90
19437;DHT22;9854;50.968;4.168;2023-10-19T12:34:40;19.60;99.90
19437;DHT22;9854;50.968;4.168;2023-10-19T12:37:06;19.60;99.90
19437;DHT22;9854;50.968;4.168;2023-10-19T12:39:34;19.60;99.90
19437;DHT22;9854;50.968;4.168;2023-10-19T12:42:13;19.60;99.90
19437;DHT22;9854;50.968;4.168;2023-10-19T12:44:40;19.70;99.90
19437;DHT22;9854;50.968;4.168;2023-10-19T12:47:07;19.80;99.90
19437;DHT22;9854;50.968;4.168;2023-10-19T12:49:41;19.90;99.90
19437;DHT22;9854;50.968;4.168;2023-10-19T12:52:08;20.10;99.90
19437;DHT22;9854;50.968;4.168;2023-10-19T12:54:34;20.40;99.90
19437;DHT22;9854;50.968;4.168;2023-10-19T12:57:01;20.60;99.90
19437;DHT22;9854;50.968;4.168;2023-10-19T12:59:32;20.80;99.90
19437;DHT22;9854;50.968;4.168;2023-10-19T13:01:59;20.90;99.90
19437;DHT22;9854;50.968;4.168;2023-10-19T13:04:28;21.10;99.90
19437;DHT22;9854;50.968;4.168;2023-10-19T13:06:56;21.50;99.90
19437;DHT22;9854;50.968;4.168;2023-10-19T13:09:24;21.70;99.90
19437;DHT22;9854;50.968;4.168;2023-10-19T13:12:00;21.90;99.90
19437;DHT22;9854;50.968;4.168;2023-10-19T13:14:26;22.00;99.90
19437;DHT22;9854;50.968;4.168;2023-10-19T13:16:52;22.10;99.90
19437;DHT22;9854;50.968;4.168;2023-10-19T13:19:20;22.10;99.90
19437;DHT22;9854;50.968;4.168;2023-10-19T13:21:49;22.20;99.90
19437;DHT22;9854;50.968;4.168;2023-10-19T13:24:17;22.10;99.90
19437;DHT22;9854;50.968;4.168;2023-10-19T13:26:43;21.90;99.90
19437;DHT22;9854;50.968;4.168;2023-10-19T13:29:12;21.70;99.90
19437;DHT22;9854;50.968;4.168;2023-10-19T13:31:38;21.90;99.90
19437;DHT22;9854;50.968;4.168;2023-10-19T13:34:03;21.90;99.90
19437;DHT22;9854;50.968;4.168;2023-10-19T13:36:36;22.00;99.90
19437;DHT22;9854;50.968;4.168;2023-10-19T13:39:01;22.20;99.90
19437;DHT22;9854;50.968;4.168;2023-10-19T13:41:29;22.10;99.90
19437;DHT22;9854;50.968;4.168;2023-10-19T13:43:54;21.90;99.90
19437;DHT22;9854;50.968;4.168;2023-10-19T13:46:21;21.80;99.90
19437;DHT22;9854;50.968;4.168;2023-10-19T13:48:49;21.90;99.90
19437;DHT22;9854;50.968;4.168;2023-10-19T13:51:19;21.90;99.90
19437;DHT22;9854;50.968;4.168;2023-10-19T13:53:45;21.90;99.90
19437;DHT22;9854;50.968;4.168;2023-10-19T13:56:11;22.00;99.90
19437;DHT22;9854;50.968;4.168;2023-10-19T13:58:38;22.00;99.90
19437;DHT22;9854;50.968;4.168;2023-10-19T14:01:08;22.00;99.90
19437;DHT22;9854;50.968;4.168;2023-10-19T14:03:34;22.00;99.90
19437;DHT22;9854;50.968;4.168;2023-10-19T14:06:00;21.90;99.90
19437;DHT22;9854;50.968;4.168;2023-10-19T14:08:26;22.10;99.90
19437;DHT22;9854;50.968;4.168;2023-10-19T14:10:51;22.20;99.90
19437;DHT22;9854;50.968;4.168;2023-10-19T14:13:17;22.30;99.90
19437;DHT22;9854;50.968;4.168;2023-10-19T14:15:43;22.50;99.90
19437;DHT22;9854;50.968;4.168;2023-10-19T14:18:09;22.70;99.90
19437;DHT22;9854;50.968;4.168;2023-10-19T14:20:38;22.80;99.90
19437;DHT22;9854;50.968;4.168;2023-10-19T14:23:06;22.60;99.90
19437;DHT22;9854;50.968;4.168;2023-10-19T14:25:35;22.50;99.90
19437;DHT22;9854;50.968;4.168;2023-10-19T14:28:01;22.30;99.90
19437;DHT22;9854;50.968;4.168;2023-10-19T14:30:32;22.60;99.90
19437;DHT22;9854;50.968;4.168;2023-10-19T14:32:58;22.70;99.90
19437;DHT22;9854;50.968;4.168;2023-10-19T14:35:24;22.80;99.90
19437;DHT22;9854;50.968;4.168;2023-10-19T14:37:52;22.70;99.90
19437;DHT22;9854;50.968;4.168;2023-10-19T14:40:23;22.90;99.90
19437;DHT22;9854;50.968;4.168;2023-10-19T14:42:51;22.90;99.90
19437;DHT22;9854;50.968;4.168;2023-10-19T14:45:20;22.80;99.90
19437;DHT22;9854;50.968;4.168;2023-10-19T14:47:50;22.80;99.90
19437;DHT22;9854;50.968;4.168;2023-10-19T14:50:21;22.80;99.90
19437;DHT22;9854;50.968;4.168;2023-10-19T14:52:50;22.70;99.90
19437;DHT22;9854;50.968;4.168;2023-10-19T14:55:22;22.70;99.90
19437;DHT22;9854;50.968;4.168;2023-10-19T14:57:50;22.50;99.90
19437;DHT22;9854;50.968;4.168;2023-10-19T15:00:20;22.40;99.90
19437;DHT22;9854;50.968;4.168;2023-10-19T15:02:53;22.30;99.90
19437;DHT22;9854;50.968;4.168;2023-10-19T15:05:23;22.00;99.90
19437;DHT22;9854;50.968;4.168;2023-10-19T15:07:51;21.80;99.90
19437;DHT22;9854;50.968;4.168;2023-10-19T15:10:18;21.70;99.90
19437;DHT22;9854;50.968;4.168;2023-10-19T15:12:44;21.60;99.90
19437;DHT22;9854;50.968;4.168;2023-10-19T15:15:11;21.60;99.90
19437;DHT22;9854;50.968;4.168;2023-10-19T15:17:40;21.60;99.90
19437;DHT22;9854;50.968;4.168;2023-10-19T15:20:07;21.70;99.90
19437;DHT22;9854;50.968;4.168;2023-10-19T15:22:35;21.80;99.90
19437;DHT22;9854;50.968;4.168;2023-10-19T15:25:01;21.80;99.90
19437;DHT22;9854;50.968;4.168;2023-10-19T15:27:27;21.70;99.90
19437;DHT22;9854;50.968;4.168;2023-10-19T15:29:55;21.80;99.90
19437;DHT22;9854;50.968;4.168;2023-10-19T15:32:22;21.70;99.90
19437;DHT22;9854;50.968;4.168;2023-10-19T15:34:48;21.70;99.90
19437;DHT22;9854;50.968;4.168;2023-10-19T15:37:14;21.70;99.90
19437;DHT22;9854;50.968;4.168;2023-10-19T15:39:39;21.60;99.90
19437;DHT22;9854;50.968;4.168;2023-10-19T15:42:05;21.40;99.90
19437;DHT22;9854;50.968;4.168;2023-10-19T15:44:34;21.30;99.90
19437;DHT22;9854;50.968;4.168;2023-10-19T15:47:00;21.10;99.90
19437;DHT22;9854;50.968;4.168;2023-10-19T15:49:26;21.10;99.90
19437;DHT22;9854;50.968;4.168;2023-10-19T15:51:52;20.90;99.90
19437;DHT22;9854;50.968;4.168;2023-10-19T15:54:18;21.00;99.90
19437;DHT22;9854;50.968;4.168;2023-10-19T15:56:43;20.90;99.90
19437;DHT22;9854;50.968;4.168;2023-10-19T15:59:09;20.80;99.90
19437;DHT22;9854;50.968;4.168;2023-10-19T16:01:36;20.90;99.90
19437;DHT22;9854;50.968;4.168;2023-10-19T16:04:02;21.00;99.90
19437;DHT22;9854;50.968;4.168;2023-10-19T16:06:28;21.00;99.90
19437;DHT22;9854;50.968;4.168;2023-10-19T16:08:54;21.00;99.90